Time;durP1;ratioP1;P1;durP2;ratioP2;P2;SDS_P1;SDS_P2;PMS_P1;PMS_P2;Temp;Humidity;BMP_temperature;BMP_pressure;BME280_temperature;BME280_humidity;BME280_pressure;Samples;Min_cycle;Max_cycle;Signal;HPM_P1;HPM_P2
2022/08/30 00:02:58;;;;;;;5.57;3.10;;;13.30;99.90;13.30;101057.00;;;;4979209;28;82942;-61
2022/08/30 00:05:23;;;;;;;4.87;2.37;;;13.30;99.90;13.30;101064.00;;;;4986927;28;82673;-61
2022/08/30 00:07:49;;;;;;;2.30;2.10;;;13.30;99.90;13.20;101057.00;;;;4990553;28;92110;-61
2022/08/30 00:10:15;;;;;;;2.87;2.23;;;13.20;99.90;13.20;101054.00;;;;4978591;28;113516;-63
2022/08/30 00:12:42;;;;;;;3.10;1.80;;;13.20;99.90;13.20;101052.00;;;;4985301;28;83300;-61
2022/08/30 00:15:11;;;;;;;4.60;2.70;;;13.20;99.90;13.20;101055.00;;;;4993090;28;83678;-61
2022/08/30 00:17:36;;;;;;;7.23;2.67;;;13.20;99.90;13.20;101048.00;;;;4979661;28;82290;-61
2022/08/30 00:20:07;;;;;;;2.97;2.07;;;13.20;99.90;13.10;101056.00;;;;4988431;28;112819;-61
2022/08/30 00:22:33;;;;;;;3.90;3.27;;;13.10;99.90;13.10;101050.00;;;;4994445;28;83470;-61
2022/08/30 00:25:00;;;;;;;4.70;3.57;;;13.10;99.90;13.00;101059.00;;;;4983134;28;82943;-60
2022/08/30 00:27:27;;;;;;;2.53;2.33;;;13.00;99.90;13.00;101047.00;;;;4984039;28;107804;-61
2022/08/30 00:29:54;;;;;;;4.40;3.20;;;13.00;99.90;13.00;101046.00;;;;4980537;28;83368;-61
2022/08/30 00:32:20;;;;;;;2.87;2.30;;;13.00;99.90;12.90;101053.00;;;;4981639;28;99710;-61
2022/08/30 00:34:50;;;;;;;5.60;2.87;;;12.90;99.90;12.90;101053.00;;;;4987295;28;111755;-62
2022/08/30 00:37:16;;;;;;;4.83;3.90;;;12.90;99.90;12.90;101050.00;;;;4993252;28;102309;-60
2022/08/30 00:39:42;;;;;;;5.53;3.30;;;12.90;99.90;12.80;101040.00;;;;4984968;28;101056;-62
2022/08/30 00:42:09;;;;;;;5.27;3.07;;;12.80;99.90;12.80;101049.00;;;;4988451;28;113075;-62
2022/08/30 00:44:35;;;;;;;4.27;3.37;;;12.80;99.90;12.80;101042.00;;;;4995340;28;83026;-63
2022/08/30 00:47:01;;;;;;;8.67;3.73;;;12.80;99.90;12.70;101038.00;;;;4983643;28;97385;-61
2022/08/30 00:49:29;;;;;;;6.33;2.87;;;12.70;99.90;12.70;101055.00;;;;4987131;28;83207;-61
2022/08/30 00:51:55;;;;;;;2.70;2.47;;;12.70;99.90;12.70;101050.00;;;;4992792;28;82950;-63
2022/08/30 00:54:24;;;;;;;5.90;3.83;;;12.70;99.90;12.70;101043.00;;;;4985276;28;101977;-62
2022/08/30 00:56:51;;;;;;;6.80;4.07;;;12.70;99.90;12.70;101034.00;;;;4987483;28;81992;-62
2022/08/30 00:59:18;;;;;;;3.40;2.60;;;12.70;99.90;12.70;101035.00;;;;4994782;28;105057;-61
2022/08/30 01:01:45;;;;;;;3.97;2.43;;;12.70;99.90;12.70;101052.00;;;;4966526;28;82942;-60
2022/08/30 01:04:13;;;;;;;4.27;2.93;;;12.70;99.90;12.70;101055.00;;;;4985872;28;110316;-62
2022/08/30 01:06:40;;;;;;;4.30;2.83;;;12.70;99.90;12.80;101056.00;;;;4993457;28;82699;-61
2022/08/30 01:09:07;;;;;;;5.10;3.20;;;12.70;99.90;12.80;101050.00;;;;4985967;28;83664;-62
2022/08/30 01:11:36;;;;;;;5.67;3.43;;;12.70;99.90;12.90;101055.00;;;;4968253;28;101492;-61
2022/08/30 01:14:03;;;;;;;3.33;3.03;;;12.80;99.90;12.90;101055.00;;;;4987996;28;82846;-60
2022/08/30 01:16:31;;;;;;;3.57;2.50;;;12.80;99.90;12.90;101052.00;;;;4982130;28;82789;-60
2022/08/30 01:18:59;;;;;;;2.10;1.87;;;12.90;99.90;12.90;101057.00;;;;4967254;28;94577;-61
2022/08/30 01:21:55;;;;;;;3.43;3.03;;;12.80;99.90;12.90;101050.00;;;;4992129;28;100329;-61
2022/08/30 01:24:21;;;;;;;3.53;3.10;;;12.90;99.90;12.90;101046.00;;;;4959718;28;83094;-61
2022/08/30 01:26:47;;;;;;;2.70;2.50;;;12.90;99.90;12.90;101047.00;;;;4985493;28;109123;-63
2022/08/30 01:29:19;;;;;;;3.87;2.87;;;12.80;99.90;12.80;101056.00;;;;4993342;27;114294;-62
2022/08/30 01:31:45;;;;;;;4.17;3.20;;;12.80;99.90;12.80;101060.00;;;;4978928;28;104615;-61
2022/08/30 01:34:11;;;;;;;3.30;3.00;;;12.80;99.90;12.70;101054.00;;;;4982317;28;82634;-62
2022/08/30 01:36:38;;;;;;;10.73;4.27;;;12.80;99.90;12.70;101058.00;;;;4979513;28;82725;-61
2022/08/30 01:39:05;;;;;;;4.37;2.37;;;12.70;99.90;12.70;101057.00;;;;4983011;28;82798;-61
2022/08/30 01:41:35;;;;;;;4.57;2.80;;;12.70;99.90;12.60;101064.00;;;;4985822;28;112670;-63
2022/08/30 01:44:09;;;;;;;3.60;2.90;;;12.60;99.90;12.60;101052.00;;;;4989808;28;103058;-63
2022/08/30 01:46:40;;;;;;;2.63;2.43;;;12.60;99.90;12.50;101068.00;;;;4982529;28;81976;-63
2022/08/30 01:49:11;;;;;;;3.23;2.93;;;12.60;99.90;12.50;101059.00;;;;4988065;28;83148;-63
2022/08/30 01:51:37;;;;;;;4.43;2.70;;;12.50;99.90;12.50;101055.00;;;;4994604;28;105670;-63
2022/08/30 01:54:04;;;;;;;3.63;2.20;;;12.50;99.90;12.40;101061.00;;;;4981045;28;109669;-62
2022/08/30 01:56:30;;;;;;;3.03;2.70;;;12.40;99.90;12.40;101048.00;;;;4988765;28;82944;-62
2022/08/30 01:58:57;;;;;;;2.70;2.17;;;12.70;99.90;12.30;101049.00;;;;4994891;28;84066;-63
2022/08/30 02:01:26;;;;;;;8.13;4.07;;;12.30;99.90;12.30;101052.00;;;;4980307;28;94536;-61
2022/08/30 02:03:54;;;;;;;7.17;4.53;;;12.30;99.90;12.20;101054.00;;;;4977853;28;86328;-61
2022/08/30 02:06:20;;;;;;;9.57;3.13;;;12.30;99.90;12.20;101040.00;;;;4995918;28;89701;-63
2022/08/30 02:08:47;;;;;;;7.87;4.13;;;12.20;99.90;12.10;101049.00;;;;4984709;28;82702;-63
2022/08/30 02:11:14;;;;;;;6.00;3.57;;;12.20;99.90;12.10;101049.00;;;;4989123;28;83659;-63
2022/08/30 02:13:43;;;;;;;5.90;3.50;;;12.10;99.90;12.10;101051.00;;;;4994224;28;82627;-64
2022/08/30 02:16:12;;;;;;;6.10;3.83;;;12.10;99.90;12.00;101044.00;;;;4981519;28;82553;-63
2022/08/30 02:18:38;;;;;;;3.70;3.40;;;12.10;99.90;12.00;101038.00;;;;4987919;28;84649;-63
2022/08/30 02:21:06;;;;;;;3.53;3.23;;;12.00;99.90;12.00;101044.00;;;;4995472;28;84477;-62
2022/08/30 02:23:31;;;;;;;7.53;3.23;;;11.90;99.90;11.90;101048.00;;;;4981083;28;82668;-63
2022/08/30 02:25:58;;;;;;;3.57;3.20;;;11.90;99.90;11.90;101053.00;;;;4986162;28;108667;-64
2022/08/30 02:28:24;;;;;;;6.20;3.67;;;11.90;99.90;11.90;101052.00;;;;4991363;28;89051;-63
2022/08/30 02:30:51;;;;;;;3.10;2.17;;;11.90;99.90;11.80;101051.00;;;;4980811;28;83607;-62
2022/08/30 02:33:16;;;;;;;2.87;2.37;;;11.80;99.90;11.80;101050.00;;;;4982027;28;104722;-64
2022/08/30 02:35:42;;;;;;;4.60;3.27;;;11.80;99.90;11.80;101061.00;;;;4994804;28;96426;-63
2022/08/30 02:38:09;;;;;;;4.43;2.97;;;11.80;99.90;11.80;101056.00;;;;4976129;28;113687;-63
2022/08/30 02:40:34;;;;;;;4.07;2.50;;;11.80;99.90;11.70;101050.00;;;;4983552;28;101228;-63
2022/08/30 02:43:00;;;;;;;6.47;2.67;;;11.80;99.90;11.70;101055.00;;;;4988712;28;94038;-62
2022/08/30 02:45:26;;;;;;;2.13;1.83;;;11.70;99.90;11.70;101056.00;;;;4981813;28;109271;-63
2022/08/30 02:47:52;;;;;;;2.50;2.20;;;11.70;99.90;11.60;101057.00;;;;4979048;28;82908;-63
2022/08/30 02:50:18;;;;;;;3.83;3.53;;;11.70;99.90;11.60;101052.00;;;;4993379;28;82878;-62
2022/08/30 02:52:44;;;;;;;4.43;3.40;;;11.70;99.90;11.60;101052.00;;;;4987640;28;110890;-63
2022/08/30 02:55:10;;;;;;;2.87;2.27;;;11.60;99.90;11.60;101041.00;;;;4982946;28;102608;-63
2022/08/30 02:57:36;;;;;;;4.87;3.27;;;11.60;99.90;11.50;101050.00;;;;4993130;28;112359;-62
2022/08/30 03:00:11;;;;;;;5.73;2.93;;;11.60;99.90;11.50;101046.00;;;;4982038;28;83469;-63
2022/08/30 03:02:37;;;;;;;4.07;3.67;;;11.50;99.90;11.50;101039.00;;;;4986643;28;82695;-64
2022/08/30 03:05:03;;;;;;;5.23;3.47;;;11.50;99.90;11.50;101043.00;;;;4976533;28;82668;-63
2022/08/30 03:07:30;;;;;;;7.40;4.17;;;11.50;99.90;11.40;101046.00;;;;4978911;28;106891;-63
2022/08/30 03:09:56;;;;;;;5.30;3.50;;;11.50;99.90;11.40;101036.00;;;;4984913;28;83206;-61
2022/08/30 03:12:22;;;;;;;3.00;2.30;;;11.40;99.90;11.40;101043.00;;;;4989135;28;82894;-62
2022/08/30 03:14:47;;;;;;;2.83;2.53;;;11.40;99.90;11.40;101039.00;;;;4982283;28;109218;-64
2022/08/30 03:17:13;;;;;;;4.87;3.57;;;11.40;99.90;11.30;101042.00;;;;4985944;28;94657;-62
2022/08/30 03:19:39;;;;;;;4.87;3.43;;;11.40;99.90;11.30;101044.00;;;;4988947;28;112379;-63
2022/08/30 03:22:06;;;;;;;4.03;3.10;;;11.30;99.90;11.30;101041.00;;;;4982132;28;110035;-62
2022/08/30 03:24:33;;;;;;;5.73;3.40;;;11.30;99.90;11.30;101046.00;;;;4982653;28;82020;-62
2022/08/30 03:26:59;;;;;;;3.30;2.80;;;11.30;99.90;11.20;101047.00;;;;4986649;28;83737;-62
2022/08/30 03:29:25;;;;;;;2.37;2.13;;;11.20;99.90;11.20;101048.00;;;;4984709;28;111589;-62
2022/08/30 03:31:51;;;;;;;2.43;1.90;;;11.30;99.90;11.20;101050.00;;;;4967518;28;105765;-61
2022/08/30 03:34:17;;;;;;;3.80;2.60;;;11.20;99.90;11.10;101049.00;;;;4965742;28;82596;-60
2022/08/30 03:36:43;;;;;;;3.33;2.73;;;11.20;99.90;11.10;101050.00;;;;4965093;28;113009;-61
2022/08/30 03:39:09;;;;;;;2.73;2.50;;;11.10;99.90;11.10;101053.00;;;;4965472;28;82689;-61
2022/08/30 03:41:35;;;;;;;3.50;2.17;;;11.10;99.90;11.10;101046.00;;;;4971457;28;82901;-61
2022/08/30 03:44:01;;;;;;;2.90;2.70;;;11.10;99.90;11.10;101048.00;;;;4964960;28;108879;-59
2022/08/30 03:46:28;;;;;;;3.27;2.13;;;11.10;99.90;11.10;101044.00;;;;4957094;28;83802;-61
2022/08/30 03:48:54;;;;;;;2.80;2.53;;;11.10;99.90;11.00;101041.00;;;;4966274;28;93151;-61
2022/08/30 03:51:22;;;;;;;4.27;2.93;;;11.10;99.90;11.00;101044.00;;;;4967477;28;82801;-61
2022/08/30 03:53:47;;;;;;;2.83;2.47;;;11.10;99.90;11.00;101045.00;;;;4962628;28;102972;-63
2022/08/30 03:56:13;;;;;;;3.00;1.83;;;11.00;99.90;11.00;101045.00;;;;4962199;28;113076;-60
2022/08/30 03:58:39;;;;;;;2.60;2.40;;;11.00;99.90;11.00;101049.00;;;;4972797;28;85973;-60
2022/08/30 04:01:06;;;;;;;4.07;3.33;;;11.00;99.90;11.00;101051.00;;;;4968394;28;82839;-61
2022/08/30 04:03:32;;;;;;;2.83;2.30;;;11.00;99.90;10.90;101052.00;;;;4973690;28;86229;-62
2022/08/30 04:05:59;;;;;;;5.73;3.13;;;11.00;99.90;10.90;101055.00;;;;4970672;28;83641;-61
2022/08/30 04:08:26;;;;;;;4.67;2.37;;;11.00;99.90;10.90;101049.00;;;;4962316;28;82887;-61
2022/08/30 04:10:52;;;;;;;3.67;2.53;;;11.00;99.90;10.90;101047.00;;;;4972547;28;101350;-62
2022/08/30 04:13:19;;;;;;;2.90;2.70;;;11.00;99.90;10.90;101058.00;;;;4975425;28;81760;-61
2022/08/30 04:15:44;;;;;;;2.67;2.30;;;11.00;99.90;10.90;101051.00;;;;4967139;28;85823;-61
2022/08/30 04:18:11;;;;;;;4.00;2.30;;;10.90;99.90;10.90;101051.00;;;;4972354;28;103575;-61
2022/08/30 04:20:37;;;;;;;4.17;3.23;;;10.90;99.90;10.90;101060.00;;;;4972663;28;83587;-62
2022/08/30 04:23:06;;;;;;;3.97;2.80;;;10.90;99.90;10.90;101061.00;;;;4962083;28;82789;-62
2022/08/30 04:25:33;;;;;;;3.70;3.40;;;10.90;99.90;10.90;101060.00;;;;4970089;28;83336;-62
2022/08/30 04:28:00;;;;;;;5.47;2.93;;;10.90;99.90;10.90;101070.00;;;;4970077;28;83203;-62
2022/08/30 04:30:26;;;;;;;3.07;2.77;;;10.90;99.90;10.90;101079.00;;;;4968453;28;82739;-61
2022/08/30 04:32:51;;;;;;;4.20;3.60;;;10.90;99.90;11.00;101073.00;;;;4988011;28;82651;-61
2022/08/30 04:35:17;;;;;;;5.43;2.60;;;11.00;99.90;11.00;101077.00;;;;4979818;28;113588;-62
2022/08/30 04:37:43;;;;;;;2.63;1.87;;;11.00;99.90;11.10;101082.00;;;;4985870;28;105273;-62
2022/08/30 04:40:09;;;;;;;3.77;3.00;;;11.10;99.90;11.20;101076.00;;;;4991031;28;111653;-60
2022/08/30 04:42:36;;;;;;;8.67;3.20;;;11.10;99.90;11.30;101085.00;;;;4992800;28;82807;-62
2022/08/30 04:45:09;;;;;;;3.83;3.40;;;11.20;99.90;11.30;101083.00;;;;4985563;28;101550;-62
2022/08/30 04:47:35;;;;;;;7.30;3.17;;;11.30;99.90;11.40;101091.00;;;;4992145;28;84945;-60
2022/08/30 04:50:02;;;;;;;2.73;2.40;;;11.40;99.90;11.50;101084.00;;;;4981282;28;83343;-62
2022/08/30 04:52:28;;;;;;;2.70;2.20;;;11.40;99.90;11.50;101081.00;;;;4988189;28;82406;-61
2022/08/30 04:54:55;;;;;;;2.33;2.13;;;11.50;99.90;11.60;101092.00;;;;5009106;27;83124;-63
2022/08/30 04:57:23;;;;;;;2.63;2.33;;;11.60;99.90;11.70;101081.00;;;;5010655;27;83176;-60
2022/08/30 04:59:48;;;;;;;4.17;2.90;;;11.60;99.90;11.70;101090.00;;;;5002904;27;82632;-61
2022/08/30 05:02:14;;;;;;;4.47;2.93;;;11.70;99.90;11.80;101090.00;;;;5007407;27;88510;-63
2022/08/30 05:05:38;;;;;;;3.80;3.10;;;11.80;99.90;11.90;101100.00;;;;5008966;27;83021;-61
2022/08/30 05:07:25;;;;;;;5.03;3.30;;;11.90;99.90;11.90;101102.00;;;;4993965;27;82973;-61
2022/08/30 05:09:51;;;;;;;4.57;2.80;;;11.90;99.90;12.00;101099.00;;;;5012390;27;86625;-62
2022/08/30 05:12:16;;;;;;;3.07;2.60;;;12.00;99.90;12.10;101109.00;;;;5010562;27;110035;-61
2022/08/30 05:14:42;;;;;;;2.97;2.70;;;12.00;99.90;12.20;101107.00;;;;4990707;27;110875;-61
2022/08/30 05:17:08;;;;;;;2.57;2.37;;;12.10;99.90;12.30;101115.00;;;;4999987;27;112933;-62
2022/08/30 05:19:33;;;;;;;5.07;2.87;;;12.20;99.90;12.40;101117.00;;;;5010223;27;93417;-64
2022/08/30 05:21:59;;;;;;;2.87;2.30;;;12.30;99.90;12.50;101115.00;;;;4999379;27;108708;-61
2022/08/30 05:24:25;;;;;;;4.20;2.93;;;12.40;99.90;12.60;101112.00;;;;5000037;27;112739;-62
2022/08/30 05:26:51;;;;;;;2.13;1.73;;;12.50;99.90;12.70;101117.00;;;;5000703;27;111567;-61
2022/08/30 05:29:16;;;;;;;2.80;2.60;;;12.60;99.90;12.80;101120.00;;;;5004163;27;103143;-61
2022/08/30 05:31:43;;;;;;;5.43;4.37;;;12.70;99.90;12.90;101114.00;;;;5010360;27;97463;-62
2022/08/30 05:34:10;;;;;;;3.37;2.07;;;12.80;99.90;13.00;101121.00;;;;5008477;27;85222;-61
2022/08/30 05:36:37;;;;;;;5.97;2.83;;;12.90;99.90;13.10;101122.00;;;;4986535;28;113332;-61
2022/08/30 05:39:06;;;;;;;4.00;2.60;;;13.00;99.90;13.20;101123.00;;;;5007327;27;96667;-62
2022/08/30 05:41:32;;;;;;;3.83;3.07;;;13.10;99.90;13.30;101130.00;;;;5013836;27;82789;-62
2022/08/30 05:44:00;;;;;;;3.47;2.73;;;13.20;99.90;13.50;101125.00;;;;4998596;27;82775;-62
2022/08/30 05:46:31;;;;;;;4.73;2.90;;;13.40;99.90;13.70;101120.00;;;;5010556;27;106353;-63
2022/08/30 05:49:03;;;;;;;3.83;2.87;;;13.60;99.90;13.90;101125.00;;;;4991370;27;83127;-63
2022/08/30 05:51:31;;;;;;;5.60;3.40;;;13.70;99.90;14.10;101131.00;;;;4985702;28;82092;-64
2022/08/30 05:53:58;;;;;;;3.43;2.80;;;13.90;99.90;14.30;101129.00;;;;5009137;27;83238;-62
2022/08/30 05:56:33;;;;;;;4.90;3.27;;;14.10;99.90;14.40;101142.00;;;;5014647;27;84083;-64
2022/08/30 05:58:59;;;;;;;5.93;3.17;;;14.30;99.90;14.60;101130.00;;;;5003694;27;83991;-61
2022/08/30 06:01:30;;;;;;;4.27;3.23;;;14.40;99.90;14.70;101131.00;;;;4991769;28;84558;-61
2022/08/30 06:03:59;;;;;;;4.53;3.43;;;14.60;99.90;14.90;101136.00;;;;5004270;27;82871;-60
2022/08/30 06:06:24;;;;;;;5.07;2.33;;;14.80;99.90;15.10;101128.00;;;;5000224;27;82796;-61
2022/08/30 06:08:50;;;;;;;3.73;2.70;;;15.00;99.90;15.20;101140.00;;;;5012357;27;89891;-62
2022/08/30 06:11:19;;;;;;;2.72;2.40;;;15.10;99.90;15.40;101125.00;;;;5011471;27;95822;-60
2022/08/30 06:13:45;;;;;;;5.37;2.20;;;15.20;99.90;15.60;101140.00;;;;4994307;27;84004;-60
2022/08/30 06:16:14;;;;;;;5.10;2.60;;;15.40;99.90;15.80;101136.00;;;;4990380;28;104854;-60
2022/08/30 06:18:40;;;;;;;4.03;2.88;;;15.60;99.90;16.00;101133.00;;;;4997764;27;103513;-61
2022/08/30 06:21:07;;;;;;;3.50;2.92;;;15.80;99.90;16.30;101141.00;;;;4983322;28;109997;-61
2022/08/30 06:23:32;;;;;;;4.93;3.30;;;16.00;99.90;16.50;101134.00;;;;5003683;27;84871;-63
2022/08/30 06:26:06;;;;;;;3.30;2.53;;;16.30;99.90;16.80;101136.00;;;;5001870;27;113629;-63
2022/08/30 06:28:32;;;;;;;3.55;3.20;;;16.50;99.90;17.00;101139.00;;;;4989080;27;82722;-62
2022/08/30 06:30:58;;;;;;;4.65;3.22;;;16.80;99.90;17.40;101145.00;;;;4997270;27;83535;-62
2022/08/30 06:33:24;;;;;;;10.27;3.47;;;17.10;99.90;17.70;101134.00;;;;5000395;27;113055;-61
2022/08/30 06:35:49;;;;;;;4.03;3.40;;;17.40;99.90;17.90;101143.00;;;;4982569;28;111153;-62
2022/08/30 06:38:15;;;;;;;3.45;2.47;;;17.60;99.90;18.10;101143.00;;;;4982941;27;110804;-61
2022/08/30 06:40:41;;;;;;;4.22;3.13;;;17.90;99.90;18.20;101137.00;;;;5006072;27;108913;-62
2022/08/30 06:43:07;;;;;;;3.92;2.90;;;18.00;99.90;18.30;101142.00;;;;5000914;27;109598;-61
2022/08/30 06:45:34;;;;;;;2.60;2.40;;;18.10;99.90;18.40;101146.00;;;;5010263;27;100633;-61
2022/08/30 06:48:00;;;;;;;6.80;2.78;;;18.30;99.90;18.70;101145.00;;;;5002720;27;112053;-62
2022/08/30 06:50:26;;;;;;;3.63;3.33;;;18.50;99.90;18.90;101143.00;;;;4988065;28;82546;-62
2022/08/30 06:52:52;;;;;;;4.88;2.80;;;18.70;99.90;19.20;101141.00;;;;5009281;27;83369;-62
2022/08/30 06:55:19;;;;;;;3.72;3.25;;;18.90;99.90;19.50;101151.00;;;;5008874;27;83180;-62
2022/08/30 06:57:45;;;;;;;8.63;3.50;;;19.20;99.90;19.80;101159.00;;;;4986196;27;102308;-62
2022/08/30 07:00:14;;;;;;;3.95;2.63;;;19.50;99.90;20.00;101155.00;;;;4989191;28;82867;-62
2022/08/30 07:02:41;;;;;;;4.05;3.65;;;19.80;99.90;20.10;101148.00;;;;5007016;27;105135;-62
2022/08/30 07:05:10;;;;;;;3.60;2.58;;;19.90;99.90;20.30;101146.00;;;;5004881;27;83775;-62
2022/08/30 07:07:37;;;;;;;3.50;2.85;;;20.10;99.90;20.40;101158.00;;;;5007390;27;82632;-62
2022/08/30 07:10:07;;;;;;;6.07;3.45;;;20.20;99.90;20.60;101164.00;;;;5009442;27;95841;-62
2022/08/30 07:12:33;;;;;;;3.72;2.40;;;20.40;99.90;20.80;101157.00;;;;5002633;27;85030;-63
2022/08/30 07:15:01;;;;;;;3.55;2.33;;;20.60;99.90;21.10;101155.00;;;;5009075;27;83015;-62
2022/08/30 07:20:11;;;;;;;4.70;3.42;;;21.10;99.90;21.40;101152.00;;;;4999172;27;82904;-62
2022/08/30 07:22:36;;;;;;;3.55;3.08;;;21.20;99.90;21.50;101170.00;;;;5010031;27;103143;-62
2022/08/30 07:25:02;;;;;;;4.15;3.08;;;21.30;99.90;21.40;101163.00;;;;5004458;27;111804;-62
2022/08/30 07:27:29;;;;;;;1.95;1.65;;;21.20;99.90;21.20;101170.00;;;;4989719;27;100907;-62
2022/08/30 07:29:57;;;;;;;6.30;3.38;;;21.10;99.90;21.10;101160.00;;;;4989909;28;82139;-62
2022/08/30 07:32:23;;;;;;;3.50;2.97;;;21.00;99.90;21.10;101159.00;;;;5008744;27;83918;-62
2022/08/30 07:34:48;;;;;;;11.68;2.97;;;20.90;99.90;21.00;101165.00;;;;5002718;27;103801;-61
2022/08/30 07:37:14;;;;;;;4.40;2.67;;;20.90;99.90;21.00;101165.00;;;;5006378;27;110428;-62
2022/08/30 07:39:39;;;;;;;5.78;3.15;;;20.90;99.90;20.90;101171.00;;;;5009227;27;107302;-62
2022/08/30 07:42:05;;;;;;;4.78;2.72;;;20.80;99.90;20.80;101167.00;;;;4982048;28;84013;-62
2022/08/30 07:44:31;;;;;;;3.08;2.80;;;20.70;99.90;20.80;101172.00;;;;5002714;27;110845;-62
2022/08/30 07:46:57;;;;;;;3.83;3.53;;;20.70;99.90;20.70;101169.00;;;;5006014;27;89483;-62
2022/08/30 07:49:22;;;;;;;5.18;3.60;;;20.60;99.90;20.60;101171.00;;;;5001164;27;108968;-63
2022/08/30 07:51:48;;;;;;;5.63;2.83;;;20.50;99.90;20.50;101183.00;;;;5006806;27;114124;-62
2022/08/30 07:54:14;;;;;;;7.70;4.60;;;20.40;99.90;20.40;101188.00;;;;5013154;27;112488;-62
2022/08/30 07:56:40;;;;;;;4.10;3.13;;;20.30;99.90;20.40;101189.00;;;;4998363;27;82792;-61
2022/08/30 07:59:05;;;;;;;6.05;3.60;;;20.30;99.90;20.60;101178.00;;;;5007920;27;108292;-61
2022/08/30 08:01:31;;;;;;;9.15;4.32;;;20.40;99.90;20.90;101177.00;;;;5013041;27;86413;-63
2022/08/30 08:03:57;;;;;;;8.70;3.67;;;20.60;99.90;21.20;101185.00;;;;4998044;27;89472;-61
2022/08/30 08:06:23;;;;;;;3.75;3.05;;;20.90;99.90;21.60;101191.00;;;;5004557;27;110551;-62
2022/08/30 08:08:50;;;;;;;5.15;3.67;;;21.30;99.90;22.10;101177.00;;;;5011695;27;82574;-62
2022/08/30 08:11:23;;;;;;;3.42;2.72;;;21.70;99.90;22.50;101186.00;;;;4981441;27;83439;-62
2022/08/30 08:13:50;;;;;;;4.15;3.50;;;22.10;99.90;22.80;101187.00;;;;5004249;27;82961;-62
2022/08/30 08:16:15;;;;;;;3.70;2.78;;;22.50;99.90;23.00;101191.00;;;;5013944;27;82662;-63
2022/08/30 08:18:41;;;;;;;3.28;2.78;;;22.60;99.90;23.10;101201.00;;;;4998011;27;107855;-64
2022/08/30 08:21:06;;;;;;;7.07;2.92;;;22.80;99.90;23.30;101196.00;;;;5006190;27;110865;-62
2022/08/30 08:23:33;;;;;;;2.53;2.15;;;22.90;99.90;23.50;101204.00;;;;5011097;27;112113;-64
2022/08/30 08:25:59;;;;;;;2.95;2.42;;;23.20;99.90;23.80;101194.00;;;;4985122;27;95625;-64
2022/08/30 08:28:24;;;;;;;3.53;2.53;;;23.40;99.90;24.10;101192.00;;;;5003754;27;101151;-64
2022/08/30 08:30:50;;;;;;;2.83;2.17;;;23.70;99.90;24.40;101200.00;;;;5012585;27;105671;-64
2022/08/30 08:33:17;;;;;;;2.40;2.13;;;24.10;99.90;24.70;101192.00;;;;4993005;27;83226;-63
2022/08/30 08:35:43;;;;;;;3.50;2.25;;;24.40;99.90;25.00;101196.00;;;;5007335;27;82659;-64
2022/08/30 08:38:09;;;;;;;4.57;2.95;;;24.60;99.50;25.20;101194.00;;;;5001143;27;95658;-64
2022/08/30 08:41:01;;;;;;;3.15;2.20;;;24.90;97.60;25.20;101189.00;;;;4986578;27;111976;-64
2022/08/30 08:43:28;;;;;;;2.38;2.17;;;25.00;96.30;25.40;101194.00;;;;5007011;27;105258;-64
2022/08/30 08:46:06;;;;;;;3.15;2.00;;;25.10;96.70;25.60;101200.00;;;;5016317;27;109896;-65
2022/08/30 08:48:50;;;;;;;2.00;1.83;;;25.30;96.70;26.00;101199.00;;;;4994423;27;83108;-64
2022/08/30 08:54:33;;;;;;;3.17;1.90;;;25.80;95.80;26.60;101200.00;;;;4985848;28;83518;-64
2022/08/30 08:56:59;;;;;;;2.00;1.77;;;26.10;95.30;26.90;101198.00;;;;4986680;27;82718;-63
2022/08/30 08:59:25;;;;;;;4.47;2.55;;;26.40;94.40;27.10;101201.00;;;;5007834;27;82681;-64
2022/08/30 09:01:51;;;;;;;3.63;2.08;;;26.70;93.60;27.30;101191.00;;;;4998580;27;111289;-65
2022/08/30 09:04:28;;;;;;;3.05;1.77;;;26.80;93.20;27.60;101203.00;;;;5002423;27;82689;-63
2022/08/30 09:07:01;;;;;;;2.03;1.42;;;27.10;92.10;27.80;101200.00;;;;5003708;27;101703;-63
2022/08/30 09:09:33;;;;;;;1.83;1.58;;;27.30;90.70;28.00;101203.00;;;;5003504;27;82153;-64
2022/08/30 09:11:58;;;;;;;2.53;1.38;;;27.50;90.00;28.20;101207.00;;;;5006128;27;100287;-64
2022/08/30 09:14:33;;;;;;;3.15;2.20;;;27.70;88.10;28.30;101207.00;;;;5013544;27;103573;-64
2022/08/30 09:17:02;;;;;;;2.67;1.55;;;27.90;83.00;28.30;101207.00;;;;4996302;27;84404;-64
2022/08/30 09:19:42;;;;;;;3.33;2.35;;;27.90;80.00;28.30;101207.00;;;;4991985;27;82982;-65
2022/08/30 09:22:16;;;;;;;2.95;2.15;;;27.90;76.90;28.30;101202.00;;;;5005676;27;83026;-64
2022/08/30 09:25:04;;;;;;;4.63;2.45;;;27.80;78.10;28.40;101204.00;;;;4991853;27;82769;-64
2022/08/30 09:27:52;;;;;;;2.40;1.75;;;27.90;79.40;28.70;101206.00;;;;4999288;27;82737;-65
2022/08/30 09:30:27;;;;;;;2.60;2.20;;;28.10;80.20;28.90;101212.00;;;;4997413;28;82554;-64
2022/08/30 09:32:59;;;;;;;2.97;2.42;;;28.30;80.10;29.10;101206.00;;;;4998644;27;83321;-64
2022/08/30 09:35:36;;;;;;;2.28;1.98;;;28.60;79.00;29.20;101212.00;;;;5010504;27;88409;-65
2022/08/30 09:38:08;;;;;;;2.70;2.10;;;28.70;77.20;29.20;101212.00;;;;5014329;27;82710;-65
2022/08/30 09:40:52;;;;;;;4.00;1.80;;;28.70;76.00;29.00;101208.00;;;;5002536;27;93171;-64
2022/08/30 09:43:27;;;;;;;2.80;1.60;;;28.60;75.70;28.90;101206.00;;;;5006554;27;83919;-64
2022/08/30 09:46:08;;;;;;;3.42;1.73;;;28.50;74.80;28.60;101202.00;;;;4998600;27;83152;-65
2022/08/30 09:48:44;;;;;;;1.70;1.52;;;28.40;74.40;28.60;101203.00;;;;5002381;27;82787;-65
2022/08/30 09:51:09;;;;;;;1.27;1.17;;;28.20;74.60;28.60;101204.00;;;;5007761;27;97962;-64
2022/08/30 09:53:54;;;;;;;3.05;1.60;;;28.20;74.80;28.50;101201.00;;;;5008294;27;103126;-65
2022/08/30 09:56:50;;;;;;;3.65;1.83;;;28.10;75.00;28.30;101203.00;;;;5005740;27;82870;-64
2022/08/30 09:59:56;;;;;;;2.28;1.42;;;28.00;75.00;28.40;101201.00;;;;5011469;27;95037;-65
2022/08/30 10:03:05;;;;;;;1.42;1.20;;;28.00;75.40;28.50;101207.00;;;;4982867;27;82163;-64
2022/08/30 10:05:57;;;;;;;1.13;1.02;;;28.00;71.60;28.10;101200.00;;;;5011913;27;83098;-64
2022/08/30 10:08:37;;;;;;;2.22;1.27;;;27.80;71.40;28.10;101204.00;;;;4985904;27;101556;-65
2022/08/30 10:11:32;;;;;;;0.30;0.30;;;27.60;71.30;28.00;101204.00;;;;5004542;27;94886;-64
2022/08/30 10:14:38;;;;;;;1.05;0.77;;;27.60;70.70;27.70;101210.00;;;;4991278;27;82840;-66
2022/08/30 10:17:37;;;;;;;1.02;0.60;;;27.40;70.90;27.40;101210.00;;;;5001274;27;83460;-64
2022/08/30 10:20:37;;;;;;;1.05;0.80;;;27.20;71.20;27.10;101200.00;;;;5010041;27;82773;-64
2022/08/30 10:23:34;;;;;;;1.00;0.80;;;26.90;71.70;26.90;101194.00;;;;4991180;27;82907;-63
2022/08/30 10:26:13;;;;;;;1.23;0.88;;;26.70;72.00;26.60;101206.00;;;;4981506;27;82848;-64
2022/08/30 10:29:11;;;;;;;2.00;1.10;;;26.40;73.30;26.40;101201.00;;;;5008433;27;83908;-64
2022/08/30 10:32:16;;;;;;;1.73;1.15;;;26.20;74.40;26.20;101195.00;;;;5000952;27;84051;-65
2022/08/30 10:34:55;;;;;;;1.10;1.00;;;26.00;74.60;25.90;101201.00;;;;5010508;27;82708;-64
2022/08/30 10:37:28;;;;;;;0.68;0.63;;;25.70;75.40;25.80;101206.00;;;;5009589;27;84143;-64
2022/08/30 10:41:11;;;;;;;1.15;1.05;;;25.60;76.30;25.70;101201.00;;;;4986599;28;84864;-64
2022/08/30 10:42:48;;;;;;;0.50;0.50;;;25.40;77.00;25.70;101196.00;;;;5010327;27;83122;-64
2022/08/30 10:45:16;;;;;;;0.90;0.60;;;25.40;77.40;25.60;101184.00;;;;5007163;27;109621;-64
2022/08/30 10:47:55;;;;;;;1.20;0.82;;;25.30;77.70;25.70;101187.00;;;;4990921;27;83091;-64
2022/08/30 10:50:33;;;;;;;2.97;0.95;;;25.30;78.10;25.80;101187.00;;;;4989224;28;101706;-65
2022/08/30 10:53:09;;;;;;;0.75;0.75;;;25.40;78.10;25.90;101195.00;;;;4988609;27;83145;-64
2022/08/30 10:55:44;;;;;;;0.90;0.90;;;25.50;77.90;26.10;101196.00;;;;4986608;27;82965;-64
2022/08/30 10:58:11;;;;;;;2.42;1.05;;;25.60;77.00;26.10;101194.00;;;;5008018;27;82214;-65
2022/08/30 11:01:18;;;;;;;2.08;1.27;;;25.80;77.00;26.10;101195.00;;;;5004136;27;82855;-64
2022/08/30 11:04:12;;;;;;;1.65;0.90;;;25.80;77.00;26.10;101203.00;;;;5006900;27;82917;-64